sensor_id;sensor_type;location;lat;lon;timestamp;temperature;humidity
22984;DHT22;11658;48.908;9.140;2023-07-20T04:01:37;16.10;99.90
22984;DHT22;11658;48.908;9.140;2023-07-20T04:04:07;16.00;99.90
22984;DHT22;11658;48.908;9.140;2023-07-20T04:06:33;16.00;99.90
22984;DHT22;11658;48.908;9.140;2023-07-20T04:08:59;16.00;99.90
22984;DHT22;11658;48.908;9.140;2023-07-20T04:11:24;16.00;99.90
22984;DHT22;11658;48.908;9.140;2023-07-20T04:13:50;16.10;99.90
22984;DHT22;11658;48.908;9.140;2023-07-20T04:16:15;16.10;99.90
22984;DHT22;11658;48.908;9.140;2023-07-20T04:18:41;16.10;99.90
22984;DHT22;11658;48.908;9.140;2023-07-20T04:21:08;16.10;99.90
22984;DHT22;11658;48.908;9.140;2023-07-20T04:23:34;16.20;99.90
22984;DHT22;11658;48.908;9.140;2023-07-20T04:26:01;16.30;99.90
22984;DHT22;11658;48.908;9.140;2023-07-20T04:28:27;16.30;99.90
22984;DHT22;11658;48.908;9.140;2023-07-20T04:30:53;16.40;99.90
22984;DHT22;11658;48.908;9.140;2023-07-20T04:33:19;16.40;99.90
22984;DHT22;11658;48.908;9.140;2023-07-20T04:35:52;16.60;99.90
22984;DHT22;11658;48.908;9.140;2023-07-20T04:38:19;16.60;99.90
22984;DHT22;11658;48.908;9.140;2023-07-20T04:40:46;16.50;99.90
22984;DHT22;11658;48.908;9.140;2023-07-20T04:43:13;16.50;99.90
22984;DHT22;11658;48.908;9.140;2023-07-20T04:45:38;16.60;99.90
22984;DHT22;11658;48.908;9.140;2023-07-20T04:48:08;16.80;99.90
22984;DHT22;11658;48.908;9.140;2023-07-20T04:50:35;17.70;99.90
22984;DHT22;11658;48.908;9.140;2023-07-20T04:53:01;18.60;99.90
22984;DHT22;11658;48.908;9.140;2023-07-20T04:55:27;19.10;99.90
22984;DHT22;11658;48.908;9.140;2023-07-20T04:57:53;19.40;99.90
22984;DHT22;11658;48.908;9.140;2023-07-20T05:00:19;19.90;99.90
22984;DHT22;11658;48.908;9.140;2023-07-20T05:02:45;20.10;99.90
22984;DHT22;11658;48.908;9.140;2023-07-20T05:05:12;19.90;99.90
22984;DHT22;11658;48.908;9.140;2023-07-20T05:07:38;19.70;99.90
22984;DHT22;11658;48.908;9.140;2023-07-20T05:10:04;19.80;99.90
22984;DHT22;11658;48.908;9.140;2023-07-20T05:12:29;20.90;99.90
22984;DHT22;11658;48.908;9.140;2023-07-20T05:14:55;22.20;99.90
22984;DHT22;11658;48.908;9.140;2023-07-20T05:17:20;22.90;99.90
22984;DHT22;11658;48.908;9.140;2023-07-20T05:19:46;23.40;99.90
22984;DHT22;11658;48.908;9.140;2023-07-20T05:22:13;24.10;99.90
22984;DHT22;11658;48.908;9.140;2023-07-20T05:24:39;24.50;99.90
22984;DHT22;11658;48.908;9.140;2023-07-20T05:27:05;24.10;99.90
22984;DHT22;11658;48.908;9.140;2023-07-20T05:29:30;23.40;99.90
22984;DHT22;11658;48.908;9.140;2023-07-20T05:31:57;22.50;99.90
22984;DHT22;11658;48.908;9.140;2023-07-20T05:34:22;22.10;99.90
22984;DHT22;11658;48.908;9.140;2023-07-20T05:36:48;23.20;99.90
22984;DHT22;11658;48.908;9.140;2023-07-20T05:39:16;24.70;99.90
22984;DHT22;11658;48.908;9.140;2023-07-20T05:41:42;25.80;99.90
22984;DHT22;11658;48.908;9.140;2023-07-20T05:44:08;26.80;99.90
22984;DHT22;11658;48.908;9.140;2023-07-20T05:46:33;27.50;99.90
22984;DHT22;11658;48.908;9.140;2023-07-20T05:48:59;27.60;99.90
22984;DHT22;11658;48.908;9.140;2023-07-20T05:51:24;27.90;99.90
22984;DHT22;11658;48.908;9.140;2023-07-20T05:53:50;27.90;99.90
22984;DHT22;11658;48.908;9.140;2023-07-20T05:56:15;27.50;99.90
22984;DHT22;11658;48.908;9.140;2023-07-20T05:58:42;27.90;99.90
22984;DHT22;11658;48.908;9.140;2023-07-20T06:01:07;27.40;99.90
22984;DHT22;11658;48.908;9.140;2023-07-20T06:03:33;26.40;99.90
22984;DHT22;11658;48.908;9.140;2023-07-20T06:06:02;24.90;99.90
22984;DHT22;11658;48.908;9.140;2023-07-20T06:08:29;23.80;99.90
22984;DHT22;11658;48.908;9.140;2023-07-20T06:10:55;22.70;99.90
22984;DHT22;11658;48.908;9.140;2023-07-20T06:13:21;21.60;99.90
22984;DHT22;11658;48.908;9.140;2023-07-20T06:15:46;21.80;99.90
22984;DHT22;11658;48.908;9.140;2023-07-20T06:18:13;23.00;99.90
22984;DHT22;11658;48.908;9.140;2023-07-20T06:20:38;24.50;99.90
22984;DHT22;11658;48.908;9.140;2023-07-20T06:23:04;25.50;99.90
22984;DHT22;11658;48.908;9.140;2023-07-20T06:25:29;26.80;99.90
22984;DHT22;11658;48.908;9.140;2023-07-20T06:27:55;28.50;99.90
22984;DHT22;11658;48.908;9.140;2023-07-20T06:30:21;28.50;99.90
22984;DHT22;11658;48.908;9.140;2023-07-20T06:32:47;28.90;99.90
22984;DHT22;11658;48.908;9.140;2023-07-20T06:35:13;29.50;99.90
22984;DHT22;11658;48.908;9.140;2023-07-20T06:37:38;30.10;99.70
22984;DHT22;11658;48.908;9.140;2023-07-20T06:40:04;28.00;99.90
22984;DHT22;11658;48.908;9.140;2023-07-20T06:42:30;25.70;99.90
22984;DHT22;11658;48.908;9.140;2023-07-20T06:44:57;26.20;99.90
22984;DHT22;11658;48.908;9.140;2023-07-20T06:47:23;25.40;99.90
22984;DHT22;11658;48.908;9.140;2023-07-20T06:49:49;24.40;99.90
22984;DHT22;11658;48.908;9.140;2023-07-20T06:52:15;22.80;99.90
22984;DHT22;11658;48.908;9.140;2023-07-20T06:54:40;22.00;99.90
22984;DHT22;11658;48.908;9.140;2023-07-20T06:57:06;21.70;99.90
22984;DHT22;11658;48.908;9.140;2023-07-20T06:59:32;21.30;99.90
22984;DHT22;11658;48.908;9.140;2023-07-20T07:01:57;21.30;99.90
22984;DHT22;11658;48.908;9.140;2023-07-20T07:04:23;21.30;99.90
22984;DHT22;11658;48.908;9.140;2023-07-20T07:06:48;21.50;99.90
22984;DHT22;11658;48.908;9.140;2023-07-20T07:09:14;21.20;99.90
22984;DHT22;11658;48.908;9.140;2023-07-20T07:11:39;21.40;99.90
22984;DHT22;11658;48.908;9.140;2023-07-20T07:14:05;21.50;99.90
22984;DHT22;11658;48.908;9.140;2023-07-20T07:16:31;21.60;99.90
22984;DHT22;11658;48.908;9.140;2023-07-20T07:18:56;21.60;99.90
22984;DHT22;11658;48.908;9.140;2023-07-20T07:21:22;21.70;99.90
22984;DHT22;11658;48.908;9.140;2023-07-20T07:23:47;21.60;99.90
22984;DHT22;11658;48.908;9.140;2023-07-20T07:26:13;21.60;99.90
22984;DHT22;11658;48.908;9.140;2023-07-20T07:28:39;21.30;99.90
22984;DHT22;11658;48.908;9.140;2023-07-20T07:31:05;21.20;99.90
22984;DHT22;11658;48.908;9.140;2023-07-20T07:33:31;21.30;99.90
22984;DHT22;11658;48.908;9.140;2023-07-20T07:35:57;21.40;99.90
22984;DHT22;11658;48.908;9.140;2023-07-20T07:38:23;21.60;99.90
22984;DHT22;11658;48.908;9.140;2023-07-20T07:40:48;21.60;99.90
22984;DHT22;11658;48.908;9.140;2023-07-20T07:43:14;21.60;99.90
22984;DHT22;11658;48.908;9.140;2023-07-20T07:45:40;21.50;99.90
22984;DHT22;11658;48.908;9.140;2023-07-20T07:48:06;21.50;99.90
22984;DHT22;11658;48.908;9.140;2023-07-20T07:50:33;21.30;99.90
22984;DHT22;11658;48.908;9.140;2023-07-20T07:52:59;21.50;99.90
22984;DHT22;11658;48.908;9.140;2023-07-20T07:55:25;21.60;99.90
22984;DHT22;11658;48.908;9.140;2023-07-20T07:57:53;21.70;99.90
22984;DHT22;11658;48.908;9.140;2023-07-20T08:00:19;21.90;99.90
22984;DHT22;11658;48.908;9.140;2023-07-20T08:02:46;22.00;99.90
22984;DHT22;11658;48.908;9.140;2023-07-20T08:05:14;22.00;99.90
22984;DHT22;11658;48.908;9.140;2023-07-20T08:07:40;21.70;99.90
22984;DHT22;11658;48.908;9.140;2023-07-20T08:10:06;21.50;99.90
22984;DHT22;11658;48.908;9.140;2023-07-20T08:12:32;21.80;99.90
22984;DHT22;11658;48.908;9.140;2023-07-20T08:14:58;22.20;99.90
22984;DHT22;11658;48.908;9.140;2023-07-20T08:17:23;22.30;99.90
22984;DHT22;11658;48.908;9.140;2023-07-20T08:19:49;22.50;99.90
22984;DHT22;11658;48.908;9.140;2023-07-20T08:22:15;22.70;99.90
22984;DHT22;11658;48.908;9.140;2023-07-20T08:24:41;22.90;99.90
22984;DHT22;11658;48.908;9.140;2023-07-20T08:27:07;22.60;99.90
22984;DHT22;11658;48.908;9.140;2023-07-20T08:29:37;22.20;99.90
22984;DHT22;11658;48.908;9.140;2023-07-20T08:32:03;21.90;99.90
22984;DHT22;11658;48.908;9.140;2023-07-20T08:34:30;21.60;99.90
22984;DHT22;11658;48.908;9.140;2023-07-20T08:36:56;21.70;99.90
22984;DHT22;11658;48.908;9.140;2023-07-20T08:39:22;21.80;99.90
22984;DHT22;11658;48.908;9.140;2023-07-20T08:41:48;22.00;99.90
22984;DHT22;11658;48.908;9.140;2023-07-20T08:44:14;22.30;99.90
22984;DHT22;11658;48.908;9.140;2023-07-20T08:46:41;22.40;99.90
22984;DHT22;11658;48.908;9.140;2023-07-20T08:49:08;22.40;99.90
22984;DHT22;11658;48.908;9.140;2023-07-20T08:51:35;22.10;99.90
22984;DHT22;11658;48.908;9.140;2023-07-20T08:54:02;22.30;99.90
22984;DHT22;11658;48.908;9.140;2023-07-20T08:56:27;22.50;99.90
22984;DHT22;11658;48.908;9.140;2023-07-20T08:58:55;22.60;99.90
22984;DHT22;11658;48.908;9.140;2023-07-20T09:01:22;22.40;99.90
22984;DHT22;11658;48.908;9.140;2023-07-20T09:03:48;22.30;99.90
22984;DHT22;11658;48.908;9.140;2023-07-20T09:06:14;22.10;99.90
22984;DHT22;11658;48.908;9.140;2023-07-20T09:08:40;22.20;99.90
22984;DHT22;11658;48.908;9.140;2023-07-20T09:11:06;22.50;99.90
22984;DHT22;11658;48.908;9.140;2023-07-20T09:13:33;22.20;99.90
22984;DHT22;11658;48.908;9.140;2023-07-20T09:15:59;22.50;99.90
22984;DHT22;11658;48.908;9.140;2023-07-20T09:18:31;22.50;99.90
22984;DHT22;11658;48.908;9.140;2023-07-20T09:21:05;22.70;99.90
22984;DHT22;11658;48.908;9.140;2023-07-20T09:23:34;22.60;99.90
22984;DHT22;11658;48.908;9.140;2023-07-20T09:26:00;22.70;99.90
22984;DHT22;11658;48.908;9.140;2023-07-20T09:28:26;22.60;99.90
22984;DHT22;11658;48.908;9.140;2023-07-20T09:30:54;22.70;99.90
22984;DHT22;11658;48.908;9.140;2023-07-20T09:33:22;22.60;99.90
22984;DHT22;11658;48.908;9.140;2023-07-20T09:35:48;22.60;99.90
22984;DHT22;11658;48.908;9.140;2023-07-20T09:38:15;22.90;99.90
22984;DHT22;11658;48.908;9.140;2023-07-20T09:40:42;23.00;99.90
22984;DHT22;11658;48.908;9.140;2023-07-20T09:43:08;22.80;99.90
22984;DHT22;11658;48.908;9.140;2023-07-20T09:45:35;22.50;99.90
22984;DHT22;11658;48.908;9.140;2023-07-20T09:48:08;22.60;99.90
22984;DHT22;11658;48.908;9.140;2023-07-20T09:50:40;22.70;99.90
22984;DHT22;11658;48.908;9.140;2023-07-20T09:53:09;22.70;99.90
22984;DHT22;11658;48.908;9.140;2023-07-20T09:55:37;22.80;99.90
22984;DHT22;11658;48.908;9.140;2023-07-20T09:58:03;22.60;99.90
22984;DHT22;11658;48.908;9.140;2023-07-20T10:00:32;22.80;99.90
22984;DHT22;11658;48.908;9.140;2023-07-20T10:02:59;22.80;99.90
22984;DHT22;11658;48.908;9.140;2023-07-20T10:05:28;22.70;99.90
22984;DHT22;11658;48.908;9.140;2023-07-20T10:07:58;22.80;99.90
22984;DHT22;11658;48.908;9.140;2023-07-20T10:10:24;22.90;99.90
22984;DHT22;11658;48.908;9.140;2023-07-20T10:12:50;23.10;99.90
22984;DHT22;11658;48.908;9.140;2023-07-20T10:15:24;23.30;99.90
22984;DHT22;11658;48.908;9.140;2023-07-20T10:18:04;23.40;99.90
22984;DHT22;11658;48.908;9.140;2023-07-20T10:20:35;23.10;99.90
22984;DHT22;11658;48.908;9.140;2023-07-20T10:23:03;23.20;99.90
22984;DHT22;11658;48.908;9.140;2023-07-20T10:25:29;23.00;99.90
22984;DHT22;11658;48.908;9.140;2023-07-20T10:27:57;23.20;99.90
22984;DHT22;11658;48.908;9.140;2023-07-20T10:30:22;23.40;99.90
22984;DHT22;11658;48.908;9.140;2023-07-20T10:32:49;23.20;99.90
22984;DHT22;11658;48.908;9.140;2023-07-20T10:35:16;23.20;99.90
22984;DHT22;11658;48.908;9.140;2023-07-20T10:40:31;23.20;99.90
22984;DHT22;11658;48.908;9.140;2023-07-20T10:43:07;23.10;99.90
22984;DHT22;11658;48.908;9.140;2023-07-20T10:48:03;23.30;99.90
22984;DHT22;11658;48.908;9.140;2023-07-20T10:50:29;23.40;99.90
22984;DHT22;11658;48.908;9.140;2023-07-20T10:53:05;23.60;99.10
22984;DHT22;11658;48.908;9.140;2023-07-20T10:55:35;23.20;99.90
22984;DHT22;11658;48.908;9.140;2023-07-20T10:58:14;23.30;99.90
22984;DHT22;11658;48.908;9.140;2023-07-20T11:00:57;23.20;99.90
22984;DHT22;11658;48.908;9.140;2023-07-20T11:03:35;23.00;99.90
22984;DHT22;11658;48.908;9.140;2023-07-20T11:11:29;23.30;99.90
22984;DHT22;11658;48.908;9.140;2023-07-20T11:13:56;23.50;96.00
22984;DHT22;11658;48.908;9.140;2023-07-20T11:19:02;23.40;97.20
22984;DHT22;11658;48.908;9.140;2023-07-20T11:21:36;23.60;96.90
22984;DHT22;11658;48.908;9.140;2023-07-20T11:24:06;23.60;96.00
22984;DHT22;11658;48.908;9.140;2023-07-20T11:26:49;23.80;97.10
22984;DHT22;11658;48.908;9.140;2023-07-20T11:29:16;23.90;96.10
22984;DHT22;11658;48.908;9.140;2023-07-20T11:31:43;24.00;93.20
22984;DHT22;11658;48.908;9.140;2023-07-20T11:34:11;24.00;94.30
22984;DHT22;11658;48.908;9.140;2023-07-20T11:36:45;23.90;94.80
22984;DHT22;11658;48.908;9.140;2023-07-20T11:39:12;23.90;95.00
22984;DHT22;11658;48.908;9.140;2023-07-20T11:41:41;23.80;95.40
22984;DHT22;11658;48.908;9.140;2023-07-20T11:44:10;24.20;95.80
22984;DHT22;11658;48.908;9.140;2023-07-20T11:46:39;24.30;95.40
22984;DHT22;11658;48.908;9.140;2023-07-20T11:49:05;24.40;96.50
22984;DHT22;11658;48.908;9.140;2023-07-20T11:51:32;24.60;97.70
22984;DHT22;11658;48.908;9.140;2023-07-20T11:53:58;24.70;96.20
22984;DHT22;11658;48.908;9.140;2023-07-20T11:56:25;24.60;95.50
22984;DHT22;11658;48.908;9.140;2023-07-20T11:58:55;24.40;94.50
22984;DHT22;11658;48.908;9.140;2023-07-20T12:01:23;24.20;94.60
22984;DHT22;11658;48.908;9.140;2023-07-20T12:03:48;24.20;95.40
22984;DHT22;11658;48.908;9.140;2023-07-20T12:06:15;24.40;95.20
22984;DHT22;11658;48.908;9.140;2023-07-20T12:08:44;24.30;94.80
22984;DHT22;11658;48.908;9.140;2023-07-20T12:11:10;24.20;94.60
22984;DHT22;11658;48.908;9.140;2023-07-20T12:16:13;24.00;92.50
22984;DHT22;11658;48.908;9.140;2023-07-20T12:18:40;24.10;92.60
22984;DHT22;11658;48.908;9.140;2023-07-20T12:21:06;24.30;92.20
22984;DHT22;11658;48.908;9.140;2023-07-20T12:23:40;24.20;92.50
22984;DHT22;11658;48.908;9.140;2023-07-20T12:26:10;24.30;93.40
22984;DHT22;11658;48.908;9.140;2023-07-20T12:28:38;24.50;93.00
22984;DHT22;11658;48.908;9.140;2023-07-20T12:31:05;24.80;91.50
22984;DHT22;11658;48.908;9.140;2023-07-20T12:33:31;25.00;91.50
22984;DHT22;11658;48.908;9.140;2023-07-20T12:35:57;24.80;91.00
22984;DHT22;11658;48.908;9.140;2023-07-20T12:38:24;24.50;91.30
22984;DHT22;11658;48.908;9.140;2023-07-20T12:40:51;24.50;92.80
22984;DHT22;11658;48.908;9.140;2023-07-20T12:43:16;24.70;93.10
22984;DHT22;11658;48.908;9.140;2023-07-20T12:45:42;24.60;93.20
22984;DHT22;11658;48.908;9.140;2023-07-20T12:48:08;24.40;93.20
22984;DHT22;11658;48.908;9.140;2023-07-20T12:50:34;24.50;93.60
22984;DHT22;11658;48.908;9.140;2023-07-20T12:53:00;24.80;93.50
22984;DHT22;11658;48.908;9.140;2023-07-20T12:55:25;25.00;92.10
22984;DHT22;11658;48.908;9.140;2023-07-20T12:57:51;24.90;90.50
22984;DHT22;11658;48.908;9.140;2023-07-20T13:00:18;24.90;87.20
22984;DHT22;11658;48.908;9.140;2023-07-20T13:02:43;24.60;89.60
22984;DHT22;11658;48.908;9.140;2023-07-20T13:05:09;24.70;90.10
22984;DHT22;11658;48.908;9.140;2023-07-20T13:07:37;24.80;90.90
22984;DHT22;11658;48.908;9.140;2023-07-20T13:10:04;24.80;91.10
22984;DHT22;11658;48.908;9.140;2023-07-20T13:12:32;24.70;90.50
22984;DHT22;11658;48.908;9.140;2023-07-20T13:14:58;24.90;86.80
22984;DHT22;11658;48.908;9.140;2023-07-20T13:17:26;25.00;83.90
22984;DHT22;11658;48.908;9.140;2023-07-20T13:19:52;24.80;85.70
22984;DHT22;11658;48.908;9.140;2023-07-20T13:22:18;24.80;84.50
22984;DHT22;11658;48.908;9.140;2023-07-20T13:24:47;24.80;82.70
22984;DHT22;11658;48.908;9.140;2023-07-20T13:27:16;24.60;85.30
22984;DHT22;11658;48.908;9.140;2023-07-20T13:29:42;24.70;87.70
22984;DHT22;11658;48.908;9.140;2023-07-20T13:32:08;24.80;86.90
22984;DHT22;11658;48.908;9.140;2023-07-20T13:34:34;25.00;87.70
22984;DHT22;11658;48.908;9.140;2023-07-20T13:37:00;25.20;84.40
22984;DHT22;11658;48.908;9.140;2023-07-20T13:39:26;25.30;87.00
22984;DHT22;11658;48.908;9.140;2023-07-20T13:41:53;25.40;86.50
22984;DHT22;11658;48.908;9.140;2023-07-20T13:44:19;25.40;85.40
22984;DHT22;11658;48.908;9.140;2023-07-20T13:46:48;25.50;83.40
22984;DHT22;11658;48.908;9.140;2023-07-20T13:49:14;25.20;81.00
22984;DHT22;11658;48.908;9.140;2023-07-20T13:51:41;25.20;81.80
22984;DHT22;11658;48.908;9.140;2023-07-20T13:54:07;25.40;82.70
22984;DHT22;11658;48.908;9.140;2023-07-20T13:56:33;25.60;81.00
22984;DHT22;11658;48.908;9.140;2023-07-20T13:58:58;25.90;80.70
22984;DHT22;11658;48.908;9.140;2023-07-20T14:01:24;25.90;78.60
22984;DHT22;11658;48.908;9.140;2023-07-20T14:03:50;25.60;78.90
22984;DHT22;11658;48.908;9.140;2023-07-20T14:06:16;25.50;80.90
22984;DHT22;11658;48.908;9.140;2023-07-20T14:08:43;25.30;79.60
22984;DHT22;11658;48.908;9.140;2023-07-20T14:11:15;25.40;80.20
22984;DHT22;11658;48.908;9.140;2023-07-20T14:13:40;25.60;81.10
22984;DHT22;11658;48.908;9.140;2023-07-20T14:16:06;25.40;80.50
22984;DHT22;11658;48.908;9.140;2023-07-20T14:18:32;25.60;83.50
22984;DHT22;11658;48.908;9.140;2023-07-20T14:20:58;25.80;80.00
22984;DHT22;11658;48.908;9.140;2023-07-20T14:23:24;25.80;80.20
22984;DHT22;11658;48.908;9.140;2023-07-20T14:25:49;25.60;81.60
22984;DHT22;11658;48.908;9.140;2023-07-20T14:28:15;25.60;82.50
22984;DHT22;11658;48.908;9.140;2023-07-20T14:30:41;25.70;83.60
22984;DHT22;11658;48.908;9.140;2023-07-20T14:33:07;25.50;80.90
22984;DHT22;11658;48.908;9.140;2023-07-20T14:35:33;25.40;82.80
22984;DHT22;11658;48.908;9.140;2023-07-20T14:37:59;25.40;82.00
22984;DHT22;11658;48.908;9.140;2023-07-20T14:40:25;25.50;82.30
22984;DHT22;11658;48.908;9.140;2023-07-20T14:42:50;25.70;83.50
22984;DHT22;11658;48.908;9.140;2023-07-20T14:45:17;26.00;84.90
22984;DHT22;11658;48.908;9.140;2023-07-20T14:47:43;26.00;78.90
22984;DHT22;11658;48.908;9.140;2023-07-20T14:50:09;26.10;78.20
22984;DHT22;11658;48.908;9.140;2023-07-20T14:52:34;25.70;76.40
22984;DHT22;11658;48.908;9.140;2023-07-20T14:55:00;25.80;79.20
22984;DHT22;11658;48.908;9.140;2023-07-20T14:57:26;26.00;77.20
22984;DHT22;11658;48.908;9.140;2023-07-20T14:59:51;26.20;75.70
22984;DHT22;11658;48.908;9.140;2023-07-20T15:02:18;26.50;75.70
22984;DHT22;11658;48.908;9.140;2023-07-20T15:04:47;26.40;74.70
22984;DHT22;11658;48.908;9.140;2023-07-20T15:07:13;26.40;75.50
22984;DHT22;11658;48.908;9.140;2023-07-20T15:09:38;26.30;74.30
22984;DHT22;11658;48.908;9.140;2023-07-20T15:12:05;26.40;74.00
22984;DHT22;11658;48.908;9.140;2023-07-20T15:14:31;26.50;73.20
22984;DHT22;11658;48.908;9.140;2023-07-20T15:16:56;26.50;73.60
22984;DHT22;11658;48.908;9.140;2023-07-20T15:19:22;26.40;73.00
22984;DHT22;11658;48.908;9.140;2023-07-20T15:21:47;26.30;72.50
22984;DHT22;11658;48.908;9.140;2023-07-20T15:24:13;26.50;73.30
22984;DHT22;11658;48.908;9.140;2023-07-20T15:26:39;26.20;74.50
22984;DHT22;11658;48.908;9.140;2023-07-20T15:29:06;26.10;74.00
22984;DHT22;11658;48.908;9.140;2023-07-20T15:31:32;25.90;74.30
22984;DHT22;11658;48.908;9.140;2023-07-20T15:33:58;25.80;74.60
22984;DHT22;11658;48.908;9.140;2023-07-20T15:36:23;25.70;76.20
22984;DHT22;11658;48.908;9.140;2023-07-20T15:38:49;25.60;76.20
22984;DHT22;11658;48.908;9.140;2023-07-20T15:41:14;25.70;76.80
22984;DHT22;11658;48.908;9.140;2023-07-20T15:43:42;25.90;77.00
22984;DHT22;11658;48.908;9.140;2023-07-20T15:49:06;26.10;75.50
22984;DHT22;11658;48.908;9.140;2023-07-20T15:51:34;26.30;76.20
22984;DHT22;11658;48.908;9.140;2023-07-20T15:54:05;26.40;74.20
22984;DHT22;11658;48.908;9.140;2023-07-20T15:56:34;26.20;74.30
22984;DHT22;11658;48.908;9.140;2023-07-20T15:59:00;26.20;74.60
22984;DHT22;11658;48.908;9.140;2023-07-20T16:01:26;25.90;75.30
22984;DHT22;11658;48.908;9.140;2023-07-20T16:03:51;25.80;75.90
22984;DHT22;11658;48.908;9.140;2023-07-20T16:06:17;25.70;75.90
22984;DHT22;11658;48.908;9.140;2023-07-20T16:08:42;25.70;76.00
22984;DHT22;11658;48.908;9.140;2023-07-20T16:11:08;25.60;74.20
22984;DHT22;11658;48.908;9.140;2023-07-20T16:13:34;25.50;74.80
22984;DHT22;11658;48.908;9.140;2023-07-20T16:16:00;25.60;75.00
22984;DHT22;11658;48.908;9.140;2023-07-20T16:18:25;25.70;74.50
22984;DHT22;11658;48.908;9.140;2023-07-20T16:20:51;25.70;73.50
22984;DHT22;11658;48.908;9.140;2023-07-20T16:23:18;26.00;74.00
22984;DHT22;11658;48.908;9.140;2023-07-20T16:25:46;25.90;75.00
22984;DHT22;11658;48.908;9.140;2023-07-20T16:28:12;25.80;74.50
22984;DHT22;11658;48.908;9.140;2023-07-20T16:30:38;26.00;76.30
22984;DHT22;11658;48.908;9.140;2023-07-20T16:33:04;25.90;73.30
22984;DHT22;11658;48.908;9.140;2023-07-20T16:35:36;26.10;73.60
22984;DHT22;11658;48.908;9.140;2023-07-20T16:38:01;26.20;73.30
22984;DHT22;11658;48.908;9.140;2023-07-20T16:40:35;26.20;73.90
22984;DHT22;11658;48.908;9.140;2023-07-20T16:43:00;26.00;74.10
22984;DHT22;11658;48.908;9.140;2023-07-20T16:45:26;26.20;73.10
22984;DHT22;11658;48.908;9.140;2023-07-20T16:47:52;26.40;73.70
22984;DHT22;11658;48.908;9.140;2023-07-20T16:50:18;26.20;71.90
22984;DHT22;11658;48.908;9.140;2023-07-20T16:52:43;26.40;72.70
22984;DHT22;11658;48.908;9.140;2023-07-20T16:55:09;26.10;71.50
22984;DHT22;11658;48.908;9.140;2023-07-20T16:57:35;25.90;72.80
22984;DHT22;11658;48.908;9.140;2023-07-20T17:00:00;26.10;72.70
22984;DHT22;11658;48.908;9.140;2023-07-20T17:02:26;25.90;74.00
22984;DHT22;11658;48.908;9.140;2023-07-20T17:04:52;25.60;72.90
22984;DHT22;11658;48.908;9.140;2023-07-20T17:07:18;25.60;74.00
22984;DHT22;11658;48.908;9.140;2023-07-20T17:09:43;25.50;73.10
22984;DHT22;11658;48.908;9.140;2023-07-20T17:12:09;25.50;73.10
22984;DHT22;11658;48.908;9.140;2023-07-20T17:14:35;25.40;73.80
22984;DHT22;11658;48.908;9.140;2023-07-20T17:17:03;25.40;73.70
22984;DHT22;11658;48.908;9.140;2023-07-20T17:19:29;25.40;73.60
22984;DHT22;11658;48.908;9.140;2023-07-20T17:21:55;25.40;74.50
22984;DHT22;11658;48.908;9.140;2023-07-20T17:24:21;25.40;75.00
22984;DHT22;11658;48.908;9.140;2023-07-20T17:26:47;25.40;75.00
22984;DHT22;11658;48.908;9.140;2023-07-20T17:29:12;25.50;75.00
22984;DHT22;11658;48.908;9.140;2023-07-20T17:31:38;25.50;75.60
22984;DHT22;11658;48.908;9.140;2023-07-20T17:34:03;25.50;75.60
22984;DHT22;11658;48.908;9.140;2023-07-20T17:36:29;25.50;75.00
22984;DHT22;11658;48.908;9.140;2023-07-20T17:38:55;25.30;74.80
22984;DHT22;11658;48.908;9.140;2023-07-20T17:41:20;25.10;75.20
22984;DHT22;11658;48.908;9.140;2023-07-20T17:43:47;25.10;75.50
22984;DHT22;11658;48.908;9.140;2023-07-20T17:46:13;25.10;76.00
22984;DHT22;11658;48.908;9.140;2023-07-20T17:48:39;25.00;75.90
22984;DHT22;11658;48.908;9.140;2023-07-20T17:51:07;24.90;75.60
22984;DHT22;11658;48.908;9.140;2023-07-20T17:53:33;24.80;75.50
22984;DHT22;11658;48.908;9.140;2023-07-20T17:56:01;24.80;75.50
22984;DHT22;11658;48.908;9.140;2023-07-20T17:58:27;24.70;75.90
22984;DHT22;11658;48.908;9.140;2023-07-20T18:00:58;24.80;77.20
22984;DHT22;11658;48.908;9.140;2023-07-20T18:03:26;24.80;76.10
22984;DHT22;11658;48.908;9.140;2023-07-20T18:05:52;24.80;76.70
22984;DHT22;11658;48.908;9.140;2023-07-20T18:08:18;24.70;77.50
22984;DHT22;11658;48.908;9.140;2023-07-20T18:10:43;24.70;77.30
22984;DHT22;11658;48.908;9.140;2023-07-20T18:13:09;24.60;78.30
22984;DHT22;11658;48.908;9.140;2023-07-20T18:15:35;24.50;77.80
22984;DHT22;11658;48.908;9.140;2023-07-20T18:18:00;24.50;78.00
22984;DHT22;11658;48.908;9.140;2023-07-20T18:20:26;24.30;77.50
22984;DHT22;11658;48.908;9.140;2023-07-20T18:22:52;24.20;78.40
22984;DHT22;11658;48.908;9.140;2023-07-20T18:25:19;24.20;79.30
22984;DHT22;11658;48.908;9.140;2023-07-20T18:27:45;24.10;78.80
22984;DHT22;11658;48.908;9.140;2023-07-20T18:30:13;23.90;78.60
22984;DHT22;11658;48.908;9.140;2023-07-20T18:32:43;23.70;79.10
22984;DHT22;11658;48.908;9.140;2023-07-20T18:35:10;23.60;79.60
22984;DHT22;11658;48.908;9.140;2023-07-20T18:37:37;23.50;79.80
22984;DHT22;11658;48.908;9.140;2023-07-20T18:40:03;23.40;80.00
22984;DHT22;11658;48.908;9.140;2023-07-20T18:42:29;23.30;79.90
22984;DHT22;11658;48.908;9.140;2023-07-20T18:44:55;23.20;80.30
22984;DHT22;11658;48.908;9.140;2023-07-20T18:47:20;23.00;80.50
22984;DHT22;11658;48.908;9.140;2023-07-20T18:49:46;23.00;80.80
22984;DHT22;11658;48.908;9.140;2023-07-20T18:52:12;22.90;81.20
22984;DHT22;11658;48.908;9.140;2023-07-20T18:54:38;22.90;81.20
22984;DHT22;11658;48.908;9.140;2023-07-20T18:57:04;22.90;80.90
22984;DHT22;11658;48.908;9.140;2023-07-20T18:59:30;22.90;81.20
22984;DHT22;11658;48.908;9.140;2023-07-20T19:01:55;22.90;81.40
22984;DHT22;11658;48.908;9.140;2023-07-20T19:04:22;22.80;81.90
22984;DHT22;11658;48.908;9.140;2023-07-20T19:06:47;22.80;82.10
22984;DHT22;11658;48.908;9.140;2023-07-20T19:09:13;22.80;82.70
22984;DHT22;11658;48.908;9.140;2023-07-20T19:11:38;22.70;82.20
22984;DHT22;11658;48.908;9.140;2023-07-20T19:14:04;22.70;82.30
22984;DHT22;11658;48.908;9.140;2023-07-20T19:16:30;22.70;82.50
22984;DHT22;11658;48.908;9.140;2023-07-20T19:18:55;22.60;83.00
22984;DHT22;11658;48.908;9.140;2023-07-20T19:21:21;22.50;83.20
22984;DHT22;11658;48.908;9.140;2023-07-20T19:23:47;22.50;83.80
22984;DHT22;11658;48.908;9.140;2023-07-20T19:26:15;22.50;84.00
22984;DHT22;11658;48.908;9.140;2023-07-20T19:28:41;22.90;85.70
22984;DHT22;11658;48.908;9.140;2023-07-20T19:31:07;22.50;85.90
22984;DHT22;11658;48.908;9.140;2023-07-20T19:33:33;22.50;85.90
22984;DHT22;11658;48.908;9.140;2023-07-20T19:35:58;22.40;86.40
22984;DHT22;11658;48.908;9.140;2023-07-20T19:38:25;22.40;86.50
22984;DHT22;11658;48.908;9.140;2023-07-20T19:40:51;22.40;87.90
22984;DHT22;11658;48.908;9.140;2023-07-20T19:43:16;22.30;87.90
22984;DHT22;11658;48.908;9.140;2023-07-20T19:45:42;22.20;88.10